createdAt,value
2018-11-11T00:00:37.875Z,12.71
2018-11-11T00:01:37.902Z,12.63
2018-11-11T00:02:37.857Z,12.68
2018-11-11T00:03:37.825Z,12.65
2018-11-11T00:04:37.797Z,12.55
2018-11-11T00:05:37.948Z,12.65
2018-11-11T00:06:37.762Z,12.69
2018-11-11T00:07:37.737Z,12.63
2018-11-11T00:08:37.712Z,12.61
2018-11-11T00:09:37.696Z,12.65
2018-11-11T00:10:37.672Z,12.63
2018-11-11T00:11:37.654Z,12.63
2018-11-11T00:12:37.645Z,12.62
2018-11-11T00:13:37.614Z,12.62
2018-11-11T00:14:37.597Z,12.65
2018-11-11T00:15:37.567Z,12.68
2018-11-11T00:16:37.543Z,12.58
2018-11-11T00:17:37.528Z,12.69
2018-11-11T00:18:37.514Z,12.68
2018-11-11T00:19:37.482Z,12.72
2018-11-11T00:20:37.471Z,12.66
2018-11-11T00:21:37.521Z,12.62
2018-11-11T00:22:37.421Z,12.63
2018-11-11T00:23:37.402Z,12.62
2018-11-11T00:24:37.407Z,12.54
2018-11-11T00:25:37.374Z,12.58
2018-11-11T00:26:37.356Z,12.65
2018-11-11T00:27:37.317Z,12.62
2018-11-11T00:28:37.321Z,12.63
2018-11-11T00:29:37.287Z,12.65
2018-11-11T00:30:37.267Z,12.58
2018-11-11T00:31:37.238Z,12.51
2018-11-11T00:32:37.221Z,12.50
2018-11-11T00:33:37.211Z,12.50
2018-11-11T00:34:37.181Z,12.50
2018-11-11T00:35:37.150Z,12.43
2018-11-11T00:36:37.133Z,12.46
2018-11-11T00:37:37.116Z,12.48
2018-11-11T00:38:37.099Z,12.51
2018-11-11T00:39:37.157Z,12.61
2018-11-11T00:40:37.067Z,12.61
2018-11-11T00:41:37.062Z,12.53
2018-11-11T00:42:37.011Z,12.58
2018-11-11T00:43:36.998Z,12.58
2018-11-11T00:44:36.998Z,12.58
2018-11-11T00:45:36.957Z,12.58
2018-11-11T00:46:36.928Z,12.62
2018-11-11T00:47:36.909Z,12.55
2018-11-11T00:48:36.940Z,12.62
2018-11-11T00:49:36.862Z,12.59
2018-11-11T00:50:36.851Z,12.63
2018-11-11T00:51:36.849Z,12.61
2018-11-11T00:52:36.810Z,12.61
2018-11-11T00:53:36.789Z,12.58
2018-11-11T00:54:36.770Z,12.54
2018-11-11T00:55:36.741Z,12.58
2018-11-11T00:56:36.728Z,12.51
2018-11-11T00:57:36.705Z,12.48
2018-11-11T00:58:36.682Z,12.54
2018-11-11T00:59:36.667Z,12.58
2018-11-11T01:00:36.648Z,12.54
2018-11-11T01:01:36.621Z,12.51
2018-11-11T01:02:36.602Z,12.55
2018-11-11T01:03:36.644Z,12.58
2018-11-11T01:04:36.562Z,12.61
2018-11-11T01:05:36.538Z,12.61
2018-11-11T01:06:36.519Z,12.58
2018-11-11T01:07:36.506Z,12.62
2018-11-11T01:08:36.481Z,12.59
2018-11-11T01:09:36.455Z,12.63
2018-11-11T01:10:36.435Z,12.62
2018-11-11T01:11:36.419Z,12.69
2018-11-11T01:12:36.412Z,12.58
2018-11-11T01:13:36.374Z,12.66
2018-11-11T01:14:36.355Z,12.62
2018-11-11T01:15:36.407Z,12.66
2018-11-11T01:16:36.318Z,12.62
2018-11-11T01:17:36.295Z,12.63
2018-11-11T01:18:36.275Z,12.69
2018-11-11T01:19:36.256Z,12.69
2018-11-11T01:20:36.230Z,12.71
2018-11-11T01:21:36.212Z,12.72
2018-11-11T01:22:36.198Z,12.72
2018-11-11T01:23:36.170Z,12.71
2018-11-11T01:24:36.155Z,12.66
2018-11-11T01:25:36.129Z,12.76
2018-11-11T01:26:36.188Z,12.61
2018-11-11T01:27:36.092Z,12.69
2018-11-11T01:28:36.073Z,12.62
2018-11-11T01:29:36.047Z,12.62
2018-11-11T01:30:36.028Z,12.68
2018-11-11T01:31:35.999Z,12.81
2018-11-11T01:32:35.984Z,12.79
2018-11-11T01:33:35.965Z,12.76
2018-11-11T01:34:35.949Z,12.72
2018-11-11T01:35:35.924Z,12.76
2018-11-11T01:36:36.164Z,12.77
2018-11-11T01:37:35.882Z,12.81
2018-11-11T01:38:35.867Z,12.83
2018-11-11T01:39:35.834Z,12.76
2018-11-11T01:40:35.823Z,12.79
2018-11-11T01:41:35.800Z,12.79
2018-11-11T01:42:35.783Z,12.79
2018-11-11T01:43:35.761Z,12.81
2018-11-11T01:44:35.738Z,12.81
2018-11-11T01:45:35.720Z,12.80
2018-11-11T01:46:35.695Z,12.86
2018-11-11T01:47:35.681Z,12.73
2018-11-11T01:48:35.657Z,12.81
2018-11-11T01:49:35.631Z,12.76
2018-11-11T01:50:35.616Z,12.66
2018-11-11T01:51:35.596Z,12.69
2018-11-11T01:52:35.579Z,12.63
2018-11-11T01:53:35.552Z,12.63
2018-11-11T01:54:35.535Z,12.59
2018-11-11T01:55:35.513Z,12.73
2018-11-11T01:56:35.516Z,12.63
2018-11-11T01:57:35.472Z,12.59
2018-11-11T01:58:35.452Z,12.53
2018-11-11T01:59:35.430Z,12.55
2018-11-11T02:00:35.410Z,12.58
2018-11-11T02:01:35.393Z,12.50
2018-11-11T02:02:35.371Z,12.50
2018-11-11T02:03:35.348Z,12.55
2018-11-11T02:04:35.324Z,12.47
2018-11-11T02:05:35.309Z,12.53
2018-11-11T02:06:35.286Z,12.62
2018-11-11T02:07:35.268Z,12.53
2018-11-11T02:08:35.246Z,12.54
2018-11-11T02:09:35.252Z,12.50
2018-11-11T02:10:35.207Z,12.58
2018-11-11T02:11:35.183Z,12.51
2018-11-11T02:12:35.162Z,12.50
2018-11-11T02:13:35.135Z,12.50
2018-11-11T02:14:35.125Z,12.53
2018-11-11T02:15:35.102Z,12.58
2018-11-11T02:16:35.078Z,12.53
2018-11-11T02:17:35.057Z,12.51
2018-11-11T02:18:35.040Z,12.54
2018-11-11T02:19:35.016Z,12.55
2018-11-11T02:20:34.992Z,12.51
2018-11-11T02:21:35.025Z,12.51
2018-11-11T02:22:34.957Z,12.58
2018-11-11T02:23:34.929Z,12.58
2018-11-11T02:24:34.914Z,12.47
2018-11-11T02:25:34.894Z,12.58
2018-11-11T02:26:34.882Z,12.48
2018-11-11T02:27:34.854Z,12.51
2018-11-11T02:28:34.828Z,12.53
2018-11-11T02:29:34.812Z,12.48
2018-11-11T02:30:34.793Z,12.51
2018-11-11T02:31:34.768Z,12.48
2018-11-11T02:32:34.743Z,12.51
2018-11-11T02:33:34.732Z,12.54
2018-11-11T02:34:34.712Z,12.51
2018-11-11T02:35:34.681Z,12.50
2018-11-11T02:36:49.404Z,12.50
2018-11-11T02:37:34.808Z,12.48
2018-11-11T02:38:34.618Z,12.53
2018-11-11T02:39:34.600Z,12.53
2018-11-11T02:40:34.577Z,12.53
2018-11-11T02:41:34.564Z,12.51
2018-11-11T02:42:34.559Z,12.48
2018-11-11T02:43:34.518Z,12.48
2018-11-11T02:44:34.497Z,12.50
2018-11-11T02:45:34.492Z,12.53
2018-11-11T02:46:34.454Z,12.53
2018-11-11T02:47:34.435Z,12.51
2018-11-11T02:48:34.422Z,12.58
2018-11-11T02:49:34.400Z,12.55
2018-11-11T02:50:34.377Z,12.53
2018-11-11T02:51:34.351Z,12.51
2018-11-11T02:52:34.338Z,12.61
2018-11-11T02:53:34.330Z,12.61
2018-11-11T02:54:34.292Z,12.65
2018-11-11T02:55:34.276Z,12.55
2018-11-11T02:56:34.253Z,12.61
2018-11-11T02:57:34.232Z,12.61
2018-11-11T02:58:34.215Z,12.63
2018-11-11T02:59:34.207Z,12.68
2018-11-11T03:00:34.163Z,12.65
2018-11-11T03:01:34.152Z,12.68
2018-11-11T03:02:34.131Z,12.65
2018-11-11T03:03:34.111Z,12.73
2018-11-11T03:04:34.180Z,12.73
2018-11-11T03:05:34.061Z,12.58
2018-11-11T03:06:34.047Z,12.62
2018-11-11T03:07:34.040Z,12.72
2018-11-11T03:08:33.999Z,12.66
2018-11-11T03:09:33.986Z,12.68
2018-11-11T03:10:33.958Z,12.68
2018-11-11T03:11:33.934Z,12.73
2018-11-11T03:12:33.916Z,12.71
2018-11-11T03:13:33.904Z,12.72
2018-11-11T03:14:33.874Z,12.65
2018-11-11T03:15:33.853Z,12.62
2018-11-11T03:16:33.861Z,12.66
2018-11-11T03:17:33.819Z,12.68
2018-11-11T03:18:33.797Z,12.61
2018-11-11T03:19:33.774Z,12.55
2018-11-11T03:20:33.754Z,12.58
2018-11-11T03:21:33.732Z,12.63
2018-11-11T03:22:33.719Z,12.61
2018-11-11T03:23:33.696Z,12.65
2018-11-11T03:24:33.679Z,12.58
2018-11-11T03:25:33.657Z,12.61
2018-11-11T03:26:33.636Z,12.59
2018-11-11T03:27:33.608Z,12.55
2018-11-11T03:28:33.587Z,12.54
2018-11-11T03:29:33.571Z,12.59
2018-11-11T03:30:33.552Z,12.54
2018-11-11T03:31:33.542Z,12.50
2018-11-11T03:32:33.509Z,12.48
2018-11-11T03:33:33.485Z,12.46
2018-11-11T03:34:33.477Z,12.53
2018-11-11T03:35:33.447Z,12.50
2018-11-11T03:36:33.421Z,12.48
2018-11-11T03:37:33.408Z,12.50
2018-11-11T03:38:33.375Z,12.48
2018-11-11T03:39:33.360Z,12.51
2018-11-11T03:40:33.347Z,12.48
2018-11-11T03:41:33.322Z,12.46
2018-11-11T03:42:33.308Z,12.44
2018-11-11T03:43:33.278Z,12.40
2018-11-11T03:44:33.267Z,12.40
2018-11-11T03:45:33.239Z,12.38
2018-11-11T03:46:33.219Z,12.41
2018-11-11T03:47:33.193Z,12.38
2018-11-11T03:48:33.181Z,12.41
2018-11-11T03:49:33.160Z,12.38
2018-11-11T03:50:33.132Z,12.47
2018-11-11T03:51:33.116Z,12.41
2018-11-11T03:52:33.095Z,12.35
2018-11-11T03:53:33.085Z,12.41
2018-11-11T03:54:33.056Z,12.40
2018-11-11T03:55:33.047Z,12.43
2018-11-11T03:56:33.006Z,12.44
2018-11-11T03:57:32.987Z,12.43
2018-11-11T03:58:32.975Z,12.47
2018-11-11T03:59:32.947Z,12.51
2018-11-11T04:00:32.934Z,12.43
2018-11-11T04:01:32.910Z,12.46
2018-11-11T04:02:32.890Z,12.46
2018-11-11T04:03:32.869Z,12.44
2018-11-11T04:04:32.859Z,12.44
2018-11-11T04:05:32.827Z,12.36
2018-11-11T04:06:32.797Z,12.40
2018-11-11T04:07:32.787Z,12.44
2018-11-11T04:08:32.760Z,12.41
2018-11-11T04:09:32.744Z,12.35
2018-11-11T04:10:32.836Z,12.33
2018-11-11T04:11:32.704Z,12.32
2018-11-11T04:12:32.694Z,12.29
2018-11-11T04:13:32.655Z,12.28
2018-11-11T04:14:32.644Z,12.29
2018-11-11T04:15:32.651Z,12.30
2018-11-11T04:16:32.593Z,12.29
2018-11-11T04:17:32.570Z,12.29
2018-11-11T04:18:32.558Z,12.28
2018-11-11T04:19:32.536Z,12.38
2018-11-11T04:20:32.507Z,12.47
2018-11-11T04:21:32.496Z,12.36
2018-11-11T04:22:32.477Z,12.46
2018-11-11T04:23:32.452Z,12.41
2018-11-11T04:24:32.433Z,12.41
2018-11-11T04:25:32.409Z,12.38
2018-11-11T04:26:32.390Z,12.38
2018-11-11T04:27:32.368Z,12.40
2018-11-11T04:28:32.351Z,12.41
2018-11-11T04:29:32.325Z,12.43
2018-11-11T04:30:32.311Z,12.44
2018-11-11T04:31:32.284Z,12.47
2018-11-11T04:32:32.261Z,12.53
2018-11-11T04:33:32.246Z,12.44
2018-11-11T04:34:32.221Z,12.48
2018-11-11T04:35:32.195Z,12.54
2018-11-11T04:36:32.184Z,12.50
2018-11-11T04:37:32.173Z,12.50
2018-11-11T04:38:32.145Z,12.51
2018-11-11T04:39:32.123Z,12.50
2018-11-11T04:40:32.100Z,12.50
2018-11-11T04:41:32.078Z,12.46
2018-11-11T04:42:32.056Z,12.41
2018-11-11T04:43:32.036Z,12.35
2018-11-11T04:44:32.017Z,12.38
2018-11-11T04:45:31.994Z,12.40
2018-11-11T04:46:32.127Z,12.43
2018-11-11T04:47:31.956Z,12.36
2018-11-11T04:48:31.936Z,12.40
2018-11-11T04:49:31.919Z,12.40
2018-11-11T04:50:31.896Z,12.43
2018-11-11T04:51:31.872Z,12.43
2018-11-11T04:52:31.852Z,12.47
2018-11-11T04:53:31.831Z,12.48
2018-11-11T04:54:31.814Z,12.50
2018-11-11T04:55:31.790Z,12.47
2018-11-11T04:56:31.770Z,12.53
2018-11-11T04:57:31.749Z,12.48
2018-11-11T04:58:31.731Z,12.48
2018-11-11T04:59:31.707Z,12.51
2018-11-11T05:00:31.687Z,12.50
2018-11-11T05:01:31.719Z,12.50
2018-11-11T05:02:31.647Z,12.55
2018-11-11T05:03:31.624Z,12.51
2018-11-11T05:04:31.679Z,12.53
2018-11-11T05:05:31.587Z,12.50
2018-11-11T05:06:31.565Z,12.51
2018-11-11T05:07:31.544Z,12.58
2018-11-11T05:08:31.521Z,12.55
2018-11-11T05:09:31.502Z,12.58
2018-11-11T05:10:31.481Z,12.53
2018-11-11T05:11:31.462Z,12.55
2018-11-11T05:12:31.442Z,12.58
2018-11-11T05:13:31.418Z,12.58
2018-11-11T05:14:31.399Z,12.51
2018-11-11T05:15:31.376Z,12.58
2018-11-11T05:16:31.354Z,12.51
2018-11-11T05:17:31.337Z,12.58
2018-11-11T05:18:31.315Z,12.53
2018-11-11T05:19:31.295Z,12.54
2018-11-11T05:20:31.273Z,12.51
2018-11-11T05:21:31.257Z,12.58
2018-11-11T05:22:31.231Z,12.54
2018-11-11T05:23:31.206Z,12.50
2018-11-11T05:24:31.197Z,12.51
2018-11-11T05:25:31.179Z,12.50
2018-11-11T05:26:31.152Z,12.47
2018-11-11T05:27:31.121Z,12.50
2018-11-11T05:28:31.103Z,12.53
2018-11-11T05:29:31.089Z,12.48
2018-11-11T05:30:31.069Z,12.48
2018-11-11T05:31:31.045Z,12.51
2018-11-11T05:32:31.019Z,12.50
2018-11-11T05:33:31.001Z,12.53
2018-11-11T05:34:30.994Z,12.53
2018-11-11T05:35:30.967Z,12.50
2018-11-11T05:36:30.944Z,12.55
2018-11-11T05:37:30.925Z,12.50
2018-11-11T05:38:30.906Z,12.54
2018-11-11T05:39:30.882Z,12.48
2018-11-11T05:40:30.861Z,12.51
2018-11-11T05:41:30.847Z,12.53
2018-11-11T05:42:30.819Z,12.55
2018-11-11T05:43:30.800Z,12.55
2018-11-11T05:44:30.781Z,12.50
2018-11-11T05:45:30.760Z,12.53
2018-11-11T05:46:30.735Z,12.50
2018-11-11T05:47:30.723Z,12.54
2018-11-11T05:48:30.696Z,12.48
2018-11-11T05:49:30.676Z,12.51
2018-11-11T05:50:30.659Z,12.55
2018-11-11T05:51:30.640Z,12.61
2018-11-11T05:52:30.611Z,12.54
2018-11-11T05:53:30.589Z,12.53
2018-11-11T05:54:30.571Z,12.51
2018-11-11T05:55:30.551Z,12.54
2018-11-11T05:56:30.529Z,12.50
2018-11-11T05:57:30.512Z,12.59
2018-11-11T05:58:30.490Z,12.58
2018-11-11T05:59:30.464Z,12.51
2018-11-11T06:00:30.446Z,12.51
2018-11-11T06:01:30.429Z,12.58
2018-11-11T06:02:30.410Z,12.50
2018-11-11T06:03:30.389Z,12.54
2018-11-11T06:04:30.367Z,12.53
2018-11-11T06:05:30.345Z,12.51
2018-11-11T06:06:30.328Z,12.47
2018-11-11T06:07:30.303Z,12.53
2018-11-11T06:08:30.281Z,12.58
2018-11-11T06:09:30.265Z,12.55
2018-11-11T06:10:30.241Z,12.47
2018-11-11T06:11:30.219Z,12.50
2018-11-11T06:12:30.197Z,12.54
2018-11-11T06:13:30.180Z,12.47
2018-11-11T06:14:30.162Z,12.51
2018-11-11T06:15:30.137Z,12.51
2018-11-11T06:16:30.114Z,12.50
2018-11-11T06:17:30.096Z,12.48
2018-11-11T06:18:30.077Z,12.41
2018-11-11T06:19:30.055Z,12.43
2018-11-11T06:20:30.034Z,12.40
2018-11-11T06:21:30.018Z,12.44
2018-11-11T06:22:29.993Z,12.44
2018-11-11T06:23:29.973Z,12.50
2018-11-11T06:24:29.951Z,12.46
2018-11-11T06:25:29.932Z,12.40
2018-11-11T06:26:29.910Z,12.38
2018-11-11T06:27:29.943Z,12.48
2018-11-11T06:28:29.873Z,12.35
2018-11-11T06:29:29.853Z,12.29
2018-11-11T06:30:29.831Z,12.33
2018-11-11T06:31:29.808Z,12.25
2018-11-11T06:32:29.786Z,12.17
2018-11-11T06:33:29.769Z,12.28
2018-11-11T06:34:29.744Z,12.28
2018-11-11T06:35:29.744Z,12.18
2018-11-11T06:36:29.700Z,12.23
2018-11-11T06:37:29.682Z,12.30
2018-11-11T06:38:29.663Z,12.28
2018-11-11T06:39:29.643Z,12.14
2018-11-11T06:40:29.620Z,12.18
2018-11-11T06:41:29.600Z,12.10
2018-11-11T06:42:29.578Z,12.00
2018-11-11T06:43:29.557Z,12.08
2018-11-11T06:44:29.538Z,12.04
2018-11-11T06:45:29.517Z,12.07
2018-11-11T06:46:29.499Z,12.05
2018-11-11T06:47:29.474Z,12.11
2018-11-11T06:48:29.459Z,12.03
2018-11-11T06:49:29.439Z,11.93
2018-11-11T06:50:29.413Z,12.10
2018-11-11T06:51:29.392Z,11.95
2018-11-11T06:52:29.372Z,12.07
2018-11-11T06:53:29.352Z,11.99
2018-11-11T06:54:29.330Z,12.04
2018-11-11T06:55:29.307Z,12.04
2018-11-11T06:56:29.292Z,12.10
2018-11-11T06:57:29.263Z,12.04
2018-11-11T06:58:29.247Z,12.05
2018-11-11T06:59:29.227Z,12.08
2018-11-11T07:00:29.205Z,12.08
2018-11-11T07:01:29.187Z,12.00
2018-11-11T07:02:29.163Z,12.03
2018-11-11T07:03:29.136Z,12.13
2018-11-11T07:04:29.122Z,12.10
2018-11-11T07:05:29.102Z,12.18
2018-11-11T07:06:29.080Z,12.14
2018-11-11T07:07:29.136Z,12.21
2018-11-11T07:08:29.040Z,12.15
2018-11-11T07:09:29.020Z,12.14
2018-11-11T07:10:28.996Z,12.22
2018-11-11T07:11:28.976Z,12.25
2018-11-11T07:12:28.955Z,12.26
2018-11-11T07:13:28.935Z,12.29
2018-11-11T07:14:28.925Z,12.30
2018-11-11T07:15:28.893Z,12.25
2018-11-11T07:16:28.871Z,12.30
2018-11-11T07:17:28.850Z,12.30
2018-11-11T07:18:28.833Z,12.29
2018-11-11T07:19:28.809Z,12.28
2018-11-11T07:20:28.788Z,12.32
2018-11-11T07:21:28.770Z,12.30
2018-11-11T07:22:28.746Z,12.30
2018-11-11T07:23:28.757Z,12.33
2018-11-11T07:24:28.708Z,12.44
2018-11-11T07:25:28.691Z,12.40
2018-11-11T07:26:28.668Z,12.40
2018-11-11T07:27:28.642Z,12.44
2018-11-11T07:28:28.627Z,12.40
2018-11-11T07:29:28.604Z,12.43
2018-11-11T07:30:28.582Z,12.46
2018-11-11T07:31:28.605Z,12.41
2018-11-11T07:32:28.539Z,12.47
2018-11-11T07:33:28.519Z,12.40
2018-11-11T07:34:28.505Z,12.50
2018-11-11T07:35:28.477Z,12.50
2018-11-11T07:36:28.457Z,12.47
2018-11-11T07:37:28.436Z,12.58
2018-11-11T07:38:28.416Z,12.63
2018-11-11T07:39:28.396Z,12.51
2018-11-11T07:40:28.375Z,12.59
2018-11-11T07:41:28.355Z,12.59
2018-11-11T07:42:28.395Z,12.53
2018-11-11T07:43:28.312Z,12.66
2018-11-11T07:44:28.295Z,12.63
2018-11-11T07:45:28.272Z,12.59
2018-11-11T07:46:28.252Z,12.73
2018-11-11T07:47:28.231Z,12.79
2018-11-11T07:48:28.210Z,12.73
2018-11-11T07:49:28.189Z,12.72
2018-11-11T07:50:28.171Z,12.72
2018-11-11T07:51:28.147Z,12.72
2018-11-11T07:52:28.131Z,12.71
2018-11-11T07:53:28.108Z,12.76
2018-11-11T07:54:28.089Z,12.77
2018-11-11T07:55:28.067Z,12.79
2018-11-11T07:56:28.045Z,12.80
2018-11-11T07:57:28.022Z,12.80
2018-11-11T07:58:28.040Z,12.84
2018-11-11T07:59:27.987Z,12.96
2018-11-11T08:00:27.966Z,12.88
2018-11-11T08:01:27.951Z,12.87
2018-11-11T08:02:27.925Z,12.93
2018-11-11T08:03:27.901Z,12.91
2018-11-11T08:04:27.889Z,12.90
2018-11-11T08:05:27.861Z,12.96
2018-11-11T08:06:27.841Z,12.90
2018-11-11T08:07:27.820Z,12.88
2018-11-11T08:08:27.801Z,12.86
2018-11-11T08:09:27.779Z,12.96
2018-11-11T08:10:27.768Z,12.98
2018-11-11T08:11:27.738Z,13.02
2018-11-11T08:12:27.721Z,13.05
2018-11-11T08:13:27.697Z,13.14
2018-11-11T08:14:27.684Z,13.09
2018-11-11T08:15:27.655Z,13.08
2018-11-11T08:16:27.672Z,13.14
2018-11-11T08:17:27.619Z,13.09
2018-11-11T08:18:27.601Z,13.14
2018-11-11T08:19:27.573Z,13.13
2018-11-11T08:20:27.562Z,13.09
2018-11-11T08:21:27.536Z,13.14
2018-11-11T08:22:27.519Z,13.14
2018-11-11T08:23:27.492Z,13.24
2018-11-11T08:24:27.476Z,13.16
2018-11-11T08:25:27.512Z,13.23
2018-11-11T08:26:27.434Z,13.21
2018-11-11T08:27:27.412Z,13.19
2018-11-11T08:28:27.394Z,13.29
2018-11-11T08:29:27.374Z,13.16
2018-11-11T08:30:27.353Z,13.14
2018-11-11T08:31:27.330Z,13.17
2018-11-11T08:32:27.397Z,13.23
2018-11-11T08:33:27.291Z,13.24
2018-11-11T08:34:27.272Z,13.20
2018-11-11T08:35:27.250Z,13.17
2018-11-11T08:36:27.229Z,13.20
2018-11-11T08:37:27.210Z,13.17
2018-11-11T08:38:27.192Z,13.16
2018-11-11T08:39:27.171Z,13.24
2018-11-11T08:40:27.211Z,13.17
2018-11-11T08:41:27.131Z,13.20
2018-11-11T08:42:27.111Z,13.14
2018-11-11T08:43:27.095Z,13.16
2018-11-11T08:44:27.070Z,13.21
2018-11-11T08:45:27.050Z,13.17
2018-11-11T08:46:27.029Z,13.16
2018-11-11T08:47:27.008Z,13.17
2018-11-11T08:48:26.989Z,13.11
2018-11-11T08:49:26.969Z,13.13
2018-11-11T08:50:26.948Z,13.11
2018-11-11T08:51:26.930Z,13.17
2018-11-11T08:52:26.908Z,13.13
2018-11-11T08:53:26.889Z,13.13
2018-11-11T08:54:26.867Z,13.08
2018-11-11T08:55:26.850Z,13.08
2018-11-11T08:56:26.829Z,13.13
2018-11-11T08:57:26.814Z,13.08
2018-11-11T08:58:26.788Z,13.13
2018-11-11T08:59:26.769Z,13.17
2018-11-11T09:00:26.753Z,13.26
2018-11-11T09:01:26.729Z,13.19
2018-11-11T09:02:26.710Z,13.14
2018-11-11T09:03:26.688Z,13.14
2018-11-11T09:04:26.668Z,13.17
2018-11-11T09:05:26.646Z,13.16
2018-11-11T09:06:26.627Z,13.17
2018-11-11T09:07:26.605Z,13.14
2018-11-11T09:08:26.585Z,13.13
2018-11-11T09:09:26.564Z,13.11
2018-11-11T09:10:26.545Z,13.17
2018-11-11T09:11:26.569Z,13.19
2018-11-11T09:12:26.506Z,13.17
2018-11-11T09:13:26.484Z,13.21
2018-11-11T09:14:26.464Z,13.21
2018-11-11T09:15:26.444Z,13.24
2018-11-11T09:16:26.429Z,13.27
2018-11-11T09:17:26.508Z,13.16
2018-11-11T09:18:26.384Z,13.23
2018-11-11T09:19:26.367Z,13.17
2018-11-11T09:20:26.351Z,13.21
2018-11-11T09:21:26.376Z,13.23
2018-11-11T09:22:26.301Z,13.23
2018-11-11T09:23:26.275Z,13.24
2018-11-11T09:24:26.264Z,13.26
2018-11-11T09:25:26.261Z,13.36
2018-11-11T09:26:26.223Z,13.40
2018-11-11T09:27:26.204Z,13.39
2018-11-11T09:28:26.183Z,13.39
2018-11-11T09:29:26.178Z,13.40
2018-11-11T09:30:26.191Z,13.47
2018-11-11T09:31:26.123Z,13.46
2018-11-11T09:32:26.099Z,13.47
2018-11-11T09:33:26.083Z,13.43
2018-11-11T09:34:26.063Z,13.53
2018-11-11T09:35:26.147Z,13.63
2018-11-11T09:36:26.016Z,13.65
2018-11-11T09:37:26.002Z,13.67
2018-11-11T09:38:25.983Z,13.68
2018-11-11T09:39:25.954Z,13.79
2018-11-11T09:40:25.939Z,13.88
2018-11-11T09:41:25.922Z,13.90
2018-11-11T09:42:25.934Z,14.01
2018-11-11T09:43:25.880Z,14.03
2018-11-11T09:44:25.859Z,14.01
2018-11-11T09:45:25.841Z,14.12
2018-11-11T09:46:25.820Z,14.08
2018-11-11T09:47:25.797Z,14.04
2018-11-11T09:48:25.779Z,14.18
2018-11-11T09:49:25.763Z,14.13
2018-11-11T09:50:25.756Z,14.12
2018-11-11T09:51:25.719Z,14.16
2018-11-11T09:52:25.728Z,14.16
2018-11-11T09:53:25.682Z,14.12
2018-11-11T09:54:25.663Z,14.15
2018-11-11T09:55:25.634Z,14.16
2018-11-11T09:56:25.620Z,14.19
2018-11-11T09:57:25.601Z,14.23
2018-11-11T09:58:25.595Z,14.21
2018-11-11T09:59:25.565Z,14.21
2018-11-11T10:00:25.542Z,14.19
2018-11-11T10:01:25.525Z,14.19
2018-11-11T10:02:25.503Z,14.19
2018-11-11T10:03:25.488Z,14.21
2018-11-11T10:04:25.516Z,14.22
2018-11-11T10:05:25.444Z,14.19
2018-11-11T10:06:25.469Z,14.34
2018-11-11T10:07:25.402Z,14.37
2018-11-11T10:08:25.387Z,14.31
2018-11-11T10:09:25.366Z,14.30
2018-11-11T10:10:25.350Z,14.36
2018-11-11T10:11:25.327Z,14.33
2018-11-11T10:12:25.344Z,14.34
2018-11-11T10:13:25.285Z,14.36
2018-11-11T10:14:25.262Z,14.37
2018-11-11T10:15:25.242Z,14.38
2018-11-11T10:16:25.248Z,14.36
2018-11-11T10:17:25.200Z,14.36
2018-11-11T10:18:25.184Z,14.37
2018-11-11T10:19:25.165Z,14.37
2018-11-11T10:20:25.297Z,14.26
2018-11-11T10:21:25.132Z,14.23
2018-11-11T10:22:25.117Z,14.18
2018-11-11T10:23:25.111Z,14.19
2018-11-11T10:24:25.068Z,14.27
2018-11-11T10:25:25.054Z,14.18
2018-11-11T10:26:25.034Z,14.30
2018-11-11T10:27:25.041Z,14.34
2018-11-11T10:28:24.995Z,14.44
2018-11-11T10:29:25.143Z,14.55
2018-11-11T10:30:24.954Z,14.73
2018-11-11T10:31:24.935Z,14.73
2018-11-11T10:32:24.924Z,14.83
2018-11-11T10:33:24.980Z,14.95
2018-11-11T10:34:24.912Z,15.07
2018-11-11T10:35:24.860Z,15.15
2018-11-11T10:36:24.839Z,15.41
2018-11-11T10:37:24.841Z,15.36
2018-11-11T10:38:24.795Z,15.40
2018-11-11T10:39:24.831Z,15.47
2018-11-11T10:40:24.762Z,15.44
2018-11-11T10:41:24.735Z,15.35
2018-11-11T10:42:24.721Z,15.38
2018-11-11T10:43:24.717Z,15.45
2018-11-11T10:44:24.772Z,15.36
2018-11-11T10:45:24.661Z,15.43
2018-11-11T10:46:24.643Z,15.26
2018-11-11T10:47:24.628Z,15.33
2018-11-11T10:48:24.623Z,15.36
2018-11-11T10:49:24.580Z,15.23
2018-11-11T10:50:24.570Z,15.19
2018-11-11T10:51:24.543Z,15.19
2018-11-11T10:52:24.542Z,15.17
2018-11-11T10:53:24.545Z,15.10
2018-11-11T10:54:24.536Z,15.07
2018-11-11T10:55:24.495Z,15.12
2018-11-11T10:56:24.459Z,15.08
2018-11-11T10:57:24.466Z,15.17
2018-11-11T10:58:24.435Z,15.12
2018-11-11T10:59:24.427Z,15.11
2018-11-11T11:00:24.483Z,15.05
2018-11-11T11:01:24.358Z,15.10
2018-11-11T11:02:24.375Z,15.19
2018-11-11T11:03:24.327Z,15.22
2018-11-11T11:04:24.299Z,15.23
2018-11-11T11:05:24.288Z,15.19
2018-11-11T11:06:24.265Z,15.29
2018-11-11T11:07:24.241Z,15.30
2018-11-11T11:08:24.230Z,15.32
2018-11-11T11:09:24.201Z,15.33
2018-11-11T11:10:24.185Z,15.33
2018-11-11T11:11:24.175Z,15.33
2018-11-11T11:12:24.156Z,15.32
2018-11-11T11:13:24.220Z,15.29
2018-11-11T11:14:24.125Z,15.25
2018-11-11T11:15:24.095Z,15.25
2018-11-11T11:16:24.098Z,15.25
2018-11-11T11:17:24.055Z,15.19
2018-11-11T11:18:24.044Z,15.07
2018-11-11T11:19:24.049Z,15.07
2018-11-11T11:20:24.005Z,15.07
2018-11-11T11:21:24.012Z,15.17
2018-11-11T11:22:23.970Z,15.12
2018-11-11T11:23:23.962Z,15.19
2018-11-11T11:24:23.928Z,15.15
2018-11-11T11:25:23.951Z,15.08
2018-11-11T11:26:23.940Z,15.07
2018-11-11T11:27:23.953Z,15.05
2018-11-11T11:28:23.849Z,15.10
2018-11-11T11:29:23.843Z,15.11
2018-11-11T11:30:23.848Z,15.07
2018-11-11T11:31:23.843Z,15.04
2018-11-11T11:32:23.773Z,15.11
2018-11-11T11:33:23.768Z,15.17
2018-11-11T11:34:23.733Z,15.17
2018-11-11T11:35:23.764Z,15.23
2018-11-11T11:36:23.705Z,15.27
2018-11-11T11:37:23.678Z,15.20
2018-11-11T11:38:23.762Z,15.17
2018-11-11T11:39:23.661Z,15.30
2018-11-11T11:40:23.625Z,15.38
2018-11-11T11:41:23.705Z,15.35
2018-11-11T11:42:23.611Z,15.33
2018-11-11T11:43:23.586Z,15.32
2018-11-11T11:44:23.545Z,15.29
2018-11-11T11:45:23.539Z,15.25
2018-11-11T11:46:23.515Z,15.29
2018-11-11T11:47:23.568Z,15.23
2018-11-11T11:48:23.481Z,15.22
2018-11-11T11:49:23.476Z,15.19
2018-11-11T11:50:23.485Z,15.11
2018-11-11T11:51:23.441Z,15.04
2018-11-11T11:52:23.515Z,15.11
2018-11-11T11:53:23.409Z,15.12
2018-11-11T11:54:23.368Z,15.11
2018-11-11T11:55:23.343Z,15.05
2018-11-11T11:56:23.326Z,15.08
2018-11-11T11:57:23.353Z,15.03
2018-11-11T11:58:23.290Z,15.11
2018-11-11T11:59:23.288Z,15.10
2018-11-11T12:00:23.269Z,15.11
2018-11-11T12:01:23.233Z,15.14
2018-11-11T12:02:23.208Z,15.15
2018-11-11T12:03:23.205Z,15.23
2018-11-11T12:04:23.177Z,15.20
2018-11-11T12:05:23.176Z,15.19
2018-11-11T12:06:23.136Z,15.17
2018-11-11T12:07:23.118Z,15.19
2018-11-11T12:08:23.109Z,15.17
2018-11-11T12:09:23.082Z,15.23
2018-11-11T12:10:23.062Z,15.20
2018-11-11T12:11:23.048Z,15.20
2018-11-11T12:12:23.023Z,15.23
2018-11-11T12:13:23.004Z,15.25
2018-11-11T12:14:22.984Z,15.19
2018-11-11T12:15:22.963Z,15.23
2018-11-11T12:16:22.981Z,15.17
2018-11-11T12:17:22.925Z,15.14
2018-11-11T12:18:22.916Z,15.08
2018-11-11T12:19:22.919Z,15.07
2018-11-11T12:20:22.901Z,15.04
2018-11-11T12:21:22.917Z,15.10
2018-11-11T12:22:22.865Z,15.10
2018-11-11T12:23:22.878Z,15.01
2018-11-11T12:24:22.814Z,15.04
2018-11-11T12:25:22.780Z,15.17
2018-11-11T12:26:22.762Z,15.19
2018-11-11T12:27:22.751Z,15.26
2018-11-11T12:28:22.724Z,15.23
2018-11-11T12:29:22.703Z,15.20
2018-11-11T12:30:22.693Z,15.26
2018-11-11T12:31:22.669Z,15.20
2018-11-11T12:32:22.660Z,15.20
2018-11-11T12:33:22.656Z,15.19
2018-11-11T12:34:22.666Z,15.17
2018-11-11T12:35:22.591Z,15.12
2018-11-11T12:36:22.569Z,15.17
2018-11-11T12:37:22.583Z,15.14
2018-11-11T12:38:22.537Z,15.20
2018-11-11T12:39:22.556Z,15.11
2018-11-11T12:40:22.568Z,15.17
2018-11-11T12:41:22.477Z,15.19
2018-11-11T12:42:22.483Z,15.11
2018-11-11T12:43:22.501Z,15.17
2018-11-11T12:44:22.430Z,15.26
2018-11-11T12:45:22.408Z,15.22
2018-11-11T12:46:22.379Z,15.19
2018-11-11T12:47:22.360Z,15.17
2018-11-11T12:48:22.345Z,15.14
2018-11-11T12:49:22.343Z,15.05
2018-11-11T12:50:22.404Z,15.08
2018-11-11T12:51:22.327Z,15.08
2018-11-11T12:52:22.285Z,15.08